| Date | Time | Temp. (oF) | Dew Point (oF) | Rel. Hum. (%) | Press. (in.) | Wind Dir. | Wind Speed (mph) | Hourly Rainfall (in.) |
|
|---|---|---|---|---|---|---|---|---|---|
| 1 | 05/05 | 00:00 | 59 | 52 | 78 | 29.88 | WNW | 0 | 0.00 |
| 2 | 05/04 | 23:00 | 61 | 51 | 71 | 29.88 | W | 0 | 0.00 |
| 3 | 05/04 | 22:00 | 64 | 51 | 64 | 29.87 | W | 1 | 0.00 |
| 4 | 05/04 | 21:00 | 68 | 50 | 54 | 29.84 | W | 0 | 0.00 |
| 5 | 05/04 | 20:00 | 73 | 50 | 46 | 29.81 | NW | 2 | 0.00 |
| 6 | 05/04 | 19:00 | 76 | 51 | 42 | 29.78 | NNW | 5 | 0.00 |
| 7 | 05/04 | 18:00 | 77 | 51 | 41 | 29.77 | W | 7 | 0.00 |
| 8 | 05/04 | 17:00 | 76 | 51 | 43 | 29.76 | NNE | 6 | 0.00 |
| 9 | 05/04 | 16:00 | 80 | 53 | 40 | 29.76 | NW | 9 | 0.00 |
| 10 | 05/04 | 15:00 | 79 | 52 | 40 | 29.79 | WSW | 11 | 0.00 |
| 11 | 05/04 | 14:00 | 78 | 53 | 43 | 29.80 | SW | 7 | 0.00 |
| 12 | 05/04 | 13:00 | 75 | 52 | 45 | 29.82 | WNW | 11 | 0.00 |
| 13 | 05/04 | 12:00 | 77 | 53 | 44 | 29.82 | WSW | 7 | 0.00 |
| 14 | 05/04 | 11:00 | 75 | 53 | 47 | 29.84 | WNW | 3 | 0.00 |
| 15 | 05/04 | 10:00 | 74 | 52 | 48 | 29.85 | WSW | 2 | 0.00 |
| 16 | 05/04 | 09:00 | 73 | 57 | 58 | 29.86 | SW | 7 | 0.01 |
| 17 | 05/04 | 08:00 | 68 | 56 | 67 | 29.87 | SSW | 5 | 0.00 |
| 18 | 05/04 | 07:00 | 64 | 58 | 83 | 29.85 | WNW | 2 | 0.00 |
| 19 | 05/04 | 06:00 | 64 | 60 | 87 | 29.84 | W | 4 | 0.00 |
| 20 | 05/04 | 05:00 | 63 | 61 | 95 | 29.82 | WSW | 0 | 0.00 |
| 21 | 05/04 | 04:00 | 64 | 62 | 94 | 29.82 | W | 0 | 0.00 |
| 22 | 05/04 | 03:00 | 66 | 63 | 91 | 29.81 | W | 2 | 0.00 |
| 23 | 05/04 | 02:00 | 66 | 62 | 90 | 29.81 | WSW | 0 | 0.00 |
| 24 | 05/04 | 01:00 | 67 | 63 | 88 | 29.82 | W | 2 | 0.00 |